sensor_id;sensor_type;location;lat;lon;timestamp;pressure;altitude;pressure_sealevel;temperature;humidity
12759;BME280;20944;47.048;15.390;2023-03-16T00:00:23;97739.13;;;4.03;57.47
12759;BME280;20944;47.048;15.390;2023-03-16T00:02:52;97720.09;;;3.78;58.39
12759;BME280;20944;47.048;15.390;2023-03-16T00:05:21;97738.25;;;3.92;58.89
12759;BME280;20944;47.048;15.390;2023-03-16T00:07:53;97647.50;;;3.20;60.05
12759;BME280;20944;47.048;15.390;2023-03-16T00:10:22;97737.34;;;3.83;60.91
12759;BME280;20944;47.048;15.390;2023-03-16T00:12:53;97751.22;;;3.91;61.55
12759;BME280;20944;47.048;15.390;2023-03-16T00:15:23;97752.94;;;3.90;61.70
12759;BME280;20944;47.048;15.390;2023-03-16T00:17:51;97754.66;;;3.97;61.71
12759;BME280;20944;47.048;15.390;2023-03-16T00:20:20;97753.78;;;4.01;60.71
12759;BME280;20944;47.048;15.390;2023-03-16T00:22:49;97755.50;;;4.13;60.48
12759;BME280;20944;47.048;15.390;2023-03-16T00:25:19;97754.66;;;4.10;60.18
12759;BME280;20944;47.048;15.390;2023-03-16T00:27:47;97753.78;;;4.06;60.27
12759;BME280;20944;47.048;15.390;2023-03-16T00:30:16;97754.63;;;4.08;60.14
12759;BME280;20944;47.048;15.390;2023-03-16T00:32:44;97752.06;;;4.06;60.01
12759;BME280;20944;47.048;15.390;2023-03-16T00:35:12;97760.69;;;4.01;59.54
12759;BME280;20944;47.048;15.390;2023-03-16T00:37:40;97758.13;;;4.02;59.79
12759;BME280;20944;47.048;15.390;2023-03-16T00:40:10;97764.16;;;4.01;60.91
12759;BME280;20944;47.048;15.390;2023-03-16T00:42:41;97735.66;;;3.85;61.81
12759;BME280;20944;47.048;15.390;2023-03-16T00:45:10;97762.44;;;4.06;61.90
12759;BME280;20944;47.048;15.390;2023-03-16T00:47:38;97766.75;;;4.12;62.26
12759;BME280;20944;47.048;15.390;2023-03-16T00:50:08;97763.28;;;4.13;62.81
12759;BME280;20944;47.048;15.390;2023-03-16T00:52:37;97762.44;;;4.22;62.45
12759;BME280;20944;47.048;15.390;2023-03-16T00:55:06;97765.03;;;4.22;62.37
12759;BME280;20944;47.048;15.390;2023-03-16T00:57:34;97765.88;;;4.24;62.00
12759;BME280;20944;47.048;15.390;2023-03-16T01:00:04;97763.28;;;4.19;62.52
12759;BME280;20944;47.048;15.390;2023-03-16T01:02:38;97771.09;;;4.22;62.48
12759;BME280;20944;47.048;15.390;2023-03-16T01:05:08;97746.00;;;4.06;62.63
12759;BME280;20944;47.048;15.390;2023-03-16T01:07:36;97771.94;;;4.20;62.47
12759;BME280;20944;47.048;15.390;2023-03-16T01:10:05;97774.53;;;4.21;63.36
12759;BME280;20944;47.048;15.390;2023-03-16T01:12:34;97645.78;;;3.25;62.28
12759;BME280;20944;47.048;15.390;2023-03-16T01:15:04;97765.88;;;4.27;62.74
12759;BME280;20944;47.048;15.390;2023-03-16T01:17:32;97774.53;;;4.26;62.57
12759;BME280;20944;47.048;15.390;2023-03-16T01:20:01;97711.47;;;3.92;62.46
12759;BME280;20944;47.048;15.390;2023-03-16T01:22:33;97773.66;;;4.25;62.71
12759;BME280;20944;47.048;15.390;2023-03-16T01:25:02;97770.19;;;4.14;63.19
12759;BME280;20944;47.048;15.390;2023-03-16T01:27:30;97771.06;;;4.12;64.03
12759;BME280;20944;47.048;15.390;2023-03-16T01:29:58;97764.16;;;4.17;64.10
12759;BME280;20944;47.048;15.390;2023-03-16T01:32:29;97786.63;;;4.19;63.30
12759;BME280;20944;47.048;15.390;2023-03-16T01:34:57;97772.78;;;4.26;63.87
12759;BME280;20944;47.048;15.390;2023-03-16T01:37:25;97777.13;;;4.24;63.51
12759;BME280;20944;47.048;15.390;2023-03-16T01:39:54;97773.66;;;4.21;62.99
12759;BME280;20944;47.048;15.390;2023-03-16T01:42:22;97778.84;;;4.07;62.76
12759;BME280;20944;47.048;15.390;2023-03-16T01:44:53;97823.75;;;3.95;63.14
12759;BME280;20944;47.048;15.390;2023-03-16T01:47:22;97782.28;;;3.95;62.83
12759;BME280;20944;47.048;15.390;2023-03-16T01:49:53;97736.47;;;3.64;62.97
12759;BME280;20944;47.048;15.390;2023-03-16T01:52:25;97651.81;;;3.12;62.64
12759;BME280;20944;47.048;15.390;2023-03-16T01:54:57;97761.56;;;3.72;62.56
12759;BME280;20944;47.048;15.390;2023-03-16T01:57:30;97763.25;;;3.69;62.60
12759;BME280;20944;47.048;15.390;2023-03-16T02:00:06;97774.50;;;3.68;62.25
12759;BME280;20944;47.048;15.390;2023-03-16T02:02:38;97793.47;;;3.64;62.91
12759;BME280;20944;47.048;15.390;2023-03-16T02:05:13;97765.78;;;3.37;63.43
12759;BME280;20944;47.048;15.390;2023-03-16T02:07:45;97796.91;;;3.46;65.00
12759;BME280;20944;47.048;15.390;2023-03-16T02:10:17;97794.31;;;3.47;65.65
12759;BME280;20944;47.048;15.390;2023-03-16T02:12:46;97780.47;;;3.35;64.94
12759;BME280;20944;47.048;15.390;2023-03-16T02:15:14;97777.84;;;3.32;65.02
12759;BME280;20944;47.048;15.390;2023-03-16T02:17:43;97798.63;;;3.51;65.11
12759;BME280;20944;47.048;15.390;2023-03-16T02:20:23;97654.28;;;2.68;65.40
12759;BME280;20944;47.048;15.390;2023-03-16T02:22:54;97783.06;;;3.38;65.24
12759;BME280;20944;47.048;15.390;2023-03-16T02:25:25;97806.41;;;3.50;65.60
12759;BME280;20944;47.048;15.390;2023-03-16T02:28:01;97808.97;;;3.51;66.20
12759;BME280;20944;47.048;15.390;2023-03-16T02:30:33;97815.91;;;3.46;66.31
12759;BME280;20944;47.048;15.390;2023-03-16T02:33:02;97816.75;;;3.41;65.81
12759;BME280;20944;47.048;15.390;2023-03-16T02:35:31;97540.22;;;1.90;65.67
12759;BME280;20944;47.048;15.390;2023-03-16T02:37:59;97726.78;;;2.85;65.40
12759;BME280;20944;47.048;15.390;2023-03-16T02:40:29;97829.66;;;3.30;65.23
12759;BME280;20944;47.048;15.390;2023-03-16T02:43:00;97812.38;;;3.31;65.95
12759;BME280;20944;47.048;15.390;2023-03-16T02:45:34;97794.97;;;3.01;66.16
12759;BME280;20944;47.048;15.390;2023-03-16T02:48:08;97820.97;;;3.14;66.74
12759;BME280;20944;47.048;15.390;2023-03-16T02:50:44;97812.28;;;3.05;67.36
12759;BME280;20944;47.048;15.390;2023-03-16T02:53:14;97811.41;;;3.06;66.90
12759;BME280;20944;47.048;15.390;2023-03-16T02:55:43;97824.38;;;3.12;67.24
12759;BME280;20944;47.048;15.390;2023-03-16T02:58:12;97833.88;;;3.10;67.65
12759;BME280;20944;47.048;15.390;2023-03-16T03:00:42;97767.22;;;2.67;67.69
12759;BME280;20944;47.048;15.390;2023-03-16T03:03:11;97854.44;;;2.85;67.79
12759;BME280;20944;47.048;15.390;2023-03-16T03:05:40;97838.13;;;2.98;68.37
12759;BME280;20944;47.048;15.390;2023-03-16T03:08:08;97836.34;;;2.94;68.41
12759;BME280;20944;47.048;15.390;2023-03-16T03:10:36;97844.09;;;2.85;68.48
12759;BME280;20944;47.048;15.390;2023-03-16T03:13:05;97836.13;;;2.55;69.68
12759;BME280;20944;47.048;15.390;2023-03-16T03:15:33;97844.78;;;2.61;70.29
12759;BME280;20944;47.048;15.390;2023-03-16T03:18:03;97855.16;;;2.66;69.90
12759;BME280;20944;47.048;15.390;2023-03-16T03:20:31;97855.13;;;2.61;69.92
12759;BME280;20944;47.048;15.390;2023-03-16T03:23:00;97861.94;;;2.49;70.30
12759;BME280;20944;47.048;15.390;2023-03-16T03:25:28;97859.31;;;2.42;70.96
12759;BME280;20944;47.048;15.390;2023-03-16T03:28:02;97861.78;;;2.32;71.58
12759;BME280;20944;47.048;15.390;2023-03-16T03:30:31;97760.44;;;1.65;71.57
12759;BME280;20944;47.048;15.390;2023-03-16T03:33:00;97842.72;;;2.16;71.70
12759;BME280;20944;47.048;15.390;2023-03-16T03:35:29;97846.22;;;2.24;71.48
12759;BME280;20944;47.048;15.390;2023-03-16T03:37:58;97869.69;;;2.46;70.63
12759;BME280;20944;47.048;15.390;2023-03-16T03:40:26;97871.34;;;2.39;71.12
12759;BME280;20944;47.048;15.390;2023-03-16T03:42:55;97853.97;;;2.21;71.76
12759;BME280;20944;47.048;15.390;2023-03-16T03:45:24;97739.69;;;1.55;71.48
12759;BME280;20944;47.048;15.390;2023-03-16T03:47:52;97875.41;;;2.11;71.44
12759;BME280;20944;47.048;15.390;2023-03-16T03:50:21;97706.72;;;1.27;72.08
12759;BME280;20944;47.048;15.390;2023-03-16T03:52:51;97882.56;;;2.41;71.07
12759;BME280;20944;47.048;15.390;2023-03-16T03:55:19;97884.25;;;2.36;71.26
12759;BME280;20944;47.048;15.390;2023-03-16T03:57:47;97889.25;;;2.19;72.19
12759;BME280;20944;47.048;15.390;2023-03-16T04:00:16;97897.88;;;2.20;71.99
12759;BME280;20944;47.048;15.390;2023-03-16T04:02:46;97767.22;;;1.56;72.21
12759;BME280;20944;47.048;15.390;2023-03-16T04:05:15;97897.09;;;2.28;71.75
12759;BME280;20944;47.048;15.390;2023-03-16T04:07:43;97898.03;;;2.33;71.72
12759;BME280;20944;47.048;15.390;2023-03-16T04:10:13;97898.03;;;2.36;71.43
12759;BME280;20944;47.048;15.390;2023-03-16T04:12:41;97906.59;;;2.29;71.91
12759;BME280;20944;47.048;15.390;2023-03-16T04:15:10;97909.91;;;2.17;72.49
12759;BME280;20944;47.048;15.390;2023-03-16T04:17:39;97907.28;;;2.11;72.57
12759;BME280;20944;47.048;15.390;2023-03-16T04:20:09;97907.34;;;2.19;72.40
12759;BME280;20944;47.048;15.390;2023-03-16T04:22:45;97739.16;;;1.03;72.07
12759;BME280;20944;47.048;15.390;2023-03-16T04:25:16;97898.59;;;2.03;72.16
12759;BME280;20944;47.048;15.390;2023-03-16T04:27:44;97913.34;;;2.15;71.83
12759;BME280;20944;47.048;15.390;2023-03-16T04:30:13;97905.28;;;1.86;72.10
12759;BME280;20944;47.048;15.390;2023-03-16T04:32:42;97907.72;;;1.71;73.13
12759;BME280;20944;47.048;15.390;2023-03-16T04:35:10;97916.16;;;1.59;73.41
12759;BME280;20944;47.048;15.390;2023-03-16T04:37:38;97930.59;;;1.43;75.87
12759;BME280;20944;47.048;15.390;2023-03-16T04:40:08;97932.31;;;1.43;76.12
12759;BME280;20944;47.048;15.390;2023-03-16T04:42:44;97934.25;;;1.60;75.92
12759;BME280;20944;47.048;15.390;2023-03-16T04:45:14;97953.19;;;1.61;75.57
12759;BME280;20944;47.048;15.390;2023-03-16T04:47:43;97929.78;;;1.47;75.96
12759;BME280;20944;47.048;15.390;2023-03-16T04:50:12;97945.28;;;1.47;75.16
12759;BME280;20944;47.048;15.390;2023-03-16T04:52:40;97951.94;;;1.31;76.27
12759;BME280;20944;47.048;15.390;2023-03-16T04:55:08;97892.13;;;0.98;76.37
12759;BME280;20944;47.048;15.390;2023-03-16T04:57:37;97972.56;;;1.30;76.57
12759;BME280;20944;47.048;15.390;2023-03-16T05:00:08;97971.72;;;1.29;76.53
12759;BME280;20944;47.048;15.390;2023-03-16T05:02:45;97973.34;;;1.23;77.12
12759;BME280;20944;47.048;15.390;2023-03-16T05:05:13;97969.81;;;1.18;77.55
12759;BME280;20944;47.048;15.390;2023-03-16T05:07:42;97980.31;;;1.30;77.62
12759;BME280;20944;47.048;15.390;2023-03-16T05:10:13;97972.63;;;1.33;77.14
12759;BME280;20944;47.048;15.390;2023-03-16T05:12:42;97959.56;;;1.21;77.70
12759;BME280;20944;47.048;15.390;2023-03-16T05:15:12;97976.94;;;1.32;78.15
12759;BME280;20944;47.048;15.390;2023-03-16T05:17:41;97974.13;;;1.19;78.75
12759;BME280;20944;47.048;15.390;2023-03-16T05:20:11;97974.53;;;1.46;79.25
12759;BME280;20944;47.048;15.390;2023-03-16T05:22:43;97972.13;;;1.61;77.07
12759;BME280;20944;47.048;15.390;2023-03-16T05:25:14;97969.50;;;1.57;76.88
12759;BME280;20944;47.048;15.390;2023-03-16T05:27:43;97994.63;;;1.69;78.32
12759;BME280;20944;47.048;15.390;2023-03-16T05:30:15;97971.53;;;1.81;77.61
12759;BME280;20944;47.048;15.390;2023-03-16T05:32:44;97923.75;;;1.47;75.92
12759;BME280;20944;47.048;15.390;2023-03-16T05:35:12;97973.38;;;1.91;75.31
12759;BME280;20944;47.048;15.390;2023-03-16T05:37:41;97982.94;;;2.00;74.84
12759;BME280;20944;47.048;15.390;2023-03-16T05:40:12;97961.38;;;1.96;74.17
12759;BME280;20944;47.048;15.390;2023-03-16T05:42:43;97945.81;;;1.90;73.52
12759;BME280;20944;47.048;15.390;2023-03-16T05:45:15;97963.19;;;2.05;73.12
12759;BME280;20944;47.048;15.390;2023-03-16T05:47:44;97997.03;;;2.26;72.90
12759;BME280;20944;47.048;15.390;2023-03-16T05:50:13;97952.06;;;2.10;72.98
12759;BME280;20944;47.048;15.390;2023-03-16T05:52:43;98006.81;;;2.53;71.83
12759;BME280;20944;47.048;15.390;2023-03-16T05:55:12;97927.94;;;2.08;71.21
12759;BME280;20944;47.048;15.390;2023-03-16T05:57:41;97998.72;;;2.24;72.38
12759;BME280;20944;47.048;15.390;2023-03-16T06:00:12;97994.41;;;2.22;73.07
12759;BME280;20944;47.048;15.390;2023-03-16T06:02:45;97998.78;;;2.29;73.43
12759;BME280;20944;47.048;15.390;2023-03-16T06:05:14;97979.91;;;2.37;72.69
12759;BME280;20944;47.048;15.390;2023-03-16T06:07:43;97989.50;;;2.48;71.96
12759;BME280;20944;47.048;15.390;2023-03-16T06:10:13;98012.16;;;2.73;71.59
12759;BME280;20944;47.048;15.390;2023-03-16T06:12:41;97970.66;;;2.62;70.45
12759;BME280;20944;47.048;15.390;2023-03-16T06:15:10;97998.53;;;2.94;69.74
12759;BME280;20944;47.048;15.390;2023-03-16T06:17:39;98006.50;;;3.18;68.92
12759;BME280;20944;47.048;15.390;2023-03-16T06:20:12;98014.41;;;3.37;67.82
12759;BME280;20944;47.048;15.390;2023-03-16T06:22:41;97961.78;;;3.41;65.84
12759;BME280;20944;47.048;15.390;2023-03-16T06:25:11;97992.19;;;3.75;65.37
12759;BME280;20944;47.048;15.390;2023-03-16T06:27:40;98012.22;;;4.10;64.41
12759;BME280;20944;47.048;15.390;2023-03-16T06:30:11;98007.06;;;4.22;62.78
12759;BME280;20944;47.048;15.390;2023-03-16T06:32:40;98023.56;;;4.52;62.29
12759;BME280;20944;47.048;15.390;2023-03-16T06:35:11;98004.56;;;4.56;60.18
12759;BME280;20944;47.048;15.390;2023-03-16T06:37:40;98003.75;;;4.81;59.53
12759;BME280;20944;47.048;15.390;2023-03-16T06:40:09;97985.56;;;4.74;57.78
12759;BME280;20944;47.048;15.390;2023-03-16T06:42:39;98027.97;;;5.14;57.75
12759;BME280;20944;47.048;15.390;2023-03-16T06:45:08;98033.19;;;5.38;57.54
12759;BME280;20944;47.048;15.390;2023-03-16T06:47:37;98033.16;;;5.60;56.49
12759;BME280;20944;47.048;15.390;2023-03-16T06:50:06;98034.84;;;5.76;56.71
12759;BME280;20944;47.048;15.390;2023-03-16T06:52:36;98012.31;;;5.78;55.67
12759;BME280;20944;47.048;15.390;2023-03-16T06:55:05;98038.28;;;6.01;54.54
12759;BME280;20944;47.048;15.390;2023-03-16T06:57:33;98038.22;;;6.15;54.45
12759;BME280;20944;47.048;15.390;2023-03-16T07:00:02;98043.41;;;6.30;52.77
12759;BME280;20944;47.048;15.390;2023-03-16T07:02:30;98034.69;;;6.37;52.64
12759;BME280;20944;47.048;15.390;2023-03-16T07:05:01;98003.56;;;6.17;52.28
12759;BME280;20944;47.048;15.390;2023-03-16T07:07:29;98038.16;;;6.36;52.96
12759;BME280;20944;47.048;15.390;2023-03-16T07:09:59;98026.94;;;6.25;52.44
12759;BME280;20944;47.048;15.390;2023-03-16T07:12:27;98042.44;;;6.46;52.89
12759;BME280;20944;47.048;15.390;2023-03-16T07:14:55;97990.50;;;6.27;51.53
12759;BME280;20944;47.048;15.390;2023-03-16T07:17:24;98051.06;;;6.59;52.28
12759;BME280;20944;47.048;15.390;2023-03-16T07:19:52;98047.63;;;6.51;51.45
12759;BME280;20944;47.048;15.390;2023-03-16T07:22:20;98036.44;;;6.37;51.79
12759;BME280;20944;47.048;15.390;2023-03-16T07:24:48;98060.63;;;6.53;51.05
12759;BME280;20944;47.048;15.390;2023-03-16T07:27:24;98065.78;;;6.65;51.49
12759;BME280;20944;47.048;15.390;2023-03-16T07:29:52;98064.91;;;6.69;50.53
12759;BME280;20944;47.048;15.390;2023-03-16T07:32:21;98062.25;;;6.72;50.12
12759;BME280;20944;47.048;15.390;2023-03-16T07:34:49;98030.25;;;6.53;50.22
12759;BME280;20944;47.048;15.390;2023-03-16T07:37:17;98064.81;;;6.83;49.68
12759;BME280;20944;47.048;15.390;2023-03-16T07:39:51;98063.09;;;6.80;48.91
12759;BME280;20944;47.048;15.390;2023-03-16T07:42:19;98061.34;;;6.84;49.33
12759;BME280;20944;47.048;15.390;2023-03-16T07:44:49;98060.41;;;6.91;48.66
12759;BME280;20944;47.048;15.390;2023-03-16T07:47:18;98056.94;;;6.90;48.69
12759;BME280;20944;47.048;15.390;2023-03-16T07:49:46;98057.78;;;6.97;48.20
12759;BME280;20944;47.048;15.390;2023-03-16T07:52:14;98058.59;;;7.03;47.66
12759;BME280;20944;47.048;15.390;2023-03-16T07:54:43;98055.97;;;7.07;47.57
12759;BME280;20944;47.048;15.390;2023-03-16T07:57:11;98066.38;;;7.11;48.03
12759;BME280;20944;47.048;15.390;2023-03-16T07:59:39;98020.44;;;6.96;47.65
12759;BME280;20944;47.048;15.390;2023-03-16T08:02:11;98052.31;;;7.29;47.38
12759;BME280;20944;47.048;15.390;2023-03-16T08:04:39;98050.50;;;7.42;47.67
12759;BME280;20944;47.048;15.390;2023-03-16T08:07:09;98053.88;;;7.53;47.02
12759;BME280;20944;47.048;15.390;2023-03-16T08:09:37;98041.72;;;7.52;46.15
12759;BME280;20944;47.048;15.390;2023-03-16T08:12:07;98055.44;;;7.71;45.32
12759;BME280;20944;47.048;15.390;2023-03-16T08:14:36;98058.81;;;7.82;45.53
12759;BME280;20944;47.048;15.390;2023-03-16T08:17:05;98057.91;;;7.84;44.93
12759;BME280;20944;47.048;15.390;2023-03-16T08:19:35;98055.31;;;7.86;44.57
12759;BME280;20944;47.048;15.390;2023-03-16T08:22:04;98058.13;;;7.63;43.37
12759;BME280;20944;47.048;15.390;2023-03-16T08:24:32;98040.91;;;7.48;42.75
12759;BME280;20944;47.048;15.390;2023-03-16T08:27:01;98026.94;;;7.52;42.37
12759;BME280;20944;47.048;15.390;2023-03-16T08:29:29;98037.16;;;7.75;42.87
12759;BME280;20944;47.048;15.390;2023-03-16T08:32:00;98045.97;;;7.64;42.04
12759;BME280;20944;47.048;15.390;2023-03-16T08:34:28;98058.84;;;7.77;43.79
12759;BME280;20944;47.048;15.390;2023-03-16T08:36:59;98063.97;;;7.90;42.73
12759;BME280;20944;47.048;15.390;2023-03-16T08:39:27;98045.75;;;7.87;42.19
12759;BME280;20944;47.048;15.390;2023-03-16T08:41:55;98073.25;;;8.15;42.62
12759;BME280;20944;47.048;15.390;2023-03-16T08:44:24;98066.22;;;8.22;41.77
12759;BME280;20944;47.048;15.390;2023-03-16T08:46:53;98059.97;;;8.35;41.18
12759;BME280;20944;47.048;15.390;2023-03-16T08:49:21;98059.16;;;8.36;40.11
12759;BME280;20944;47.048;15.390;2023-03-16T08:51:49;98055.59;;;8.40;40.34
12759;BME280;20944;47.048;15.390;2023-03-16T08:54:19;98040.88;;;8.31;39.84
12759;BME280;20944;47.048;15.390;2023-03-16T08:56:48;98062.47;;;8.49;40.07
12759;BME280;20944;47.048;15.390;2023-03-16T08:59:17;98061.63;;;8.45;39.72
12759;BME280;20944;47.048;15.390;2023-03-16T09:01:56;98025.19;;;8.36;40.80
12759;BME280;20944;47.048;15.390;2023-03-16T09:04:24;98073.56;;;8.64;39.76
12759;BME280;20944;47.048;15.390;2023-03-16T09:06:54;98063.91;;;8.71;38.64
12759;BME280;20944;47.048;15.390;2023-03-16T09:09:36;98047.28;;;8.77;38.85
12759;BME280;20944;47.048;15.390;2023-03-16T09:12:05;97995.31;;;8.57;37.23
12759;BME280;20944;47.048;15.390;2023-03-16T09:14:34;98069.47;;;9.08;36.50
12759;BME280;20944;47.048;15.390;2023-03-16T09:17:04;98076.56;;;8.99;36.13
12759;BME280;20944;47.048;15.390;2023-03-16T09:19:33;98073.97;;;8.99;34.25
12759;BME280;20944;47.048;15.390;2023-03-16T09:22:20;98027.22;;;8.80;35.48
12759;BME280;20944;47.048;15.390;2023-03-16T09:24:51;98074.47;;;9.24;35.21
12759;BME280;20944;47.048;15.390;2023-03-16T09:27:19;98089.28;;;9.23;36.44
12759;BME280;20944;47.048;15.390;2023-03-16T09:29:48;98072.78;;;9.21;36.73
12759;BME280;20944;47.048;15.390;2023-03-16T09:32:18;97948.31;;;8.57;35.37
12759;BME280;20944;47.048;15.390;2023-03-16T09:34:47;98074.41;;;9.28;33.94
12759;BME280;20944;47.048;15.390;2023-03-16T09:37:15;98049.50;;;9.04;32.53
12759;BME280;20944;47.048;15.390;2023-03-16T09:39:43;98051.47;;;8.88;33.64
12759;BME280;20944;47.048;15.390;2023-03-16T09:42:16;98068.75;;;9.00;35.20
12759;BME280;20944;47.048;15.390;2023-03-16T09:44:55;98079.66;;;9.27;34.84
12759;BME280;20944;47.048;15.390;2023-03-16T09:47:28;98090.94;;;9.32;35.27
12759;BME280;20944;47.048;15.390;2023-03-16T09:50:00;98092.59;;;9.36;34.05
12759;BME280;20944;47.048;15.390;2023-03-16T09:52:36;98086.41;;;9.41;35.00
12759;BME280;20944;47.048;15.390;2023-03-16T09:55:18;98069.00;;;9.39;34.39
12759;BME280;20944;47.048;15.390;2023-03-16T09:57:51;98069.75;;;9.47;34.20
12759;BME280;20944;47.048;15.390;2023-03-16T10:00:22;98084.28;;;9.65;32.46
12759;BME280;20944;47.048;15.390;2023-03-16T10:03:14;98082.59;;;9.62;32.56
12759;BME280;20944;47.048;15.390;2023-03-16T10:05:51;98079.28;;;9.51;32.20
12759;BME280;20944;47.048;15.390;2023-03-16T10:08:22;98082.50;;;9.67;32.48
12759;BME280;20944;47.048;15.390;2023-03-16T10:13:52;98078.38;;;9.52;35.10
12759;BME280;20944;47.048;15.390;2023-03-16T10:16:24;98082.75;;;9.52;35.29
12759;BME280;20944;47.048;15.390;2023-03-16T10:18:59;98096.66;;;9.54;33.38
12759;BME280;20944;47.048;15.390;2023-03-16T10:21:30;98085.25;;;9.59;33.96
12759;BME280;20944;47.048;15.390;2023-03-16T10:24:03;98072.38;;;9.47;33.11
12759;BME280;20944;47.048;15.390;2023-03-16T10:26:36;98080.78;;;9.66;32.23
12759;BME280;20944;47.048;15.390;2023-03-16T10:29:10;98083.31;;;9.70;32.38
12759;BME280;20944;47.048;15.390;2023-03-16T10:31:40;97979.88;;;9.00;33.94
12759;BME280;20944;47.048;15.390;2023-03-16T10:34:09;98080.06;;;9.56;32.83
12759;BME280;20944;47.048;15.390;2023-03-16T10:36:40;98077.44;;;9.58;32.68
12759;BME280;20944;47.048;15.390;2023-03-16T10:39:11;98081.69;;;9.63;34.87
12759;BME280;20944;47.048;15.390;2023-03-16T10:41:41;98081.59;;;9.69;33.13
12759;BME280;20944;47.048;15.390;2023-03-16T10:44:13;98085.88;;;9.75;34.24
12759;BME280;20944;47.048;15.390;2023-03-16T10:46:44;98086.63;;;9.82;34.27
12759;BME280;20944;47.048;15.390;2023-03-16T10:49:22;98082.03;;;9.93;34.40
12759;BME280;20944;47.048;15.390;2023-03-16T10:51:54;98078.44;;;10.00;33.79
12759;BME280;20944;47.048;15.390;2023-03-16T10:54:27;98076.69;;;9.99;33.39
12759;BME280;20944;47.048;15.390;2023-03-16T10:56:57;98072.34;;;9.98;33.88
12759;BME280;20944;47.048;15.390;2023-03-16T10:59:32;98061.28;;;9.84;34.42
12759;BME280;20944;47.048;15.390;2023-03-16T11:02:02;98078.13;;;9.67;32.16
12759;BME280;20944;47.048;15.390;2023-03-16T11:04:35;98071.72;;;9.33;33.46
12759;BME280;20944;47.048;15.390;2023-03-16T11:07:06;98074.47;;;9.25;32.50
12759;BME280;20944;47.048;15.390;2023-03-16T11:09:35;97983.91;;;8.64;32.85
12759;BME280;20944;47.048;15.390;2023-03-16T11:12:13;98075.88;;;9.46;31.45
12759;BME280;20944;47.048;15.390;2023-03-16T11:14:44;98071.28;;;9.60;31.30
12759;BME280;20944;47.048;15.390;2023-03-16T11:17:14;97999.50;;;9.26;31.97
12759;BME280;20944;47.048;15.390;2023-03-16T11:19:49;98062.31;;;9.73;31.49
12759;BME280;20944;47.048;15.390;2023-03-16T11:22:22;98067.53;;;9.73;32.73
12759;BME280;20944;47.048;15.390;2023-03-16T11:24:54;98070.28;;;9.69;32.98
12759;BME280;20944;47.048;15.390;2023-03-16T11:27:29;98036.53;;;9.52;31.79
12759;BME280;20944;47.048;15.390;2023-03-16T11:30:08;98054.91;;;9.49;31.29
12759;BME280;20944;47.048;15.390;2023-03-16T11:32:47;98048.78;;;9.50;34.68
12759;BME280;20944;47.048;15.390;2023-03-16T11:35:22;98056.91;;;9.84;34.85
12759;BME280;20944;47.048;15.390;2023-03-16T11:38:04;98055.59;;;10.08;31.29
12759;BME280;20944;47.048;15.390;2023-03-16T11:40:42;98055.16;;;10.33;30.98
12759;BME280;20944;47.048;15.390;2023-03-16T11:46:13;98051.34;;;10.47;29.98
12759;BME280;20944;47.048;15.390;2023-03-16T11:48:49;98049.22;;;10.21;29.50
12759;BME280;20944;47.048;15.390;2023-03-16T11:51:34;98042.44;;;10.11;29.98
12759;BME280;20944;47.048;15.390;2023-03-16T11:54:21;98051.88;;;10.20;31.47
12759;BME280;20944;47.048;15.390;2023-03-16T11:56:54;97994.59;;;10.03;30.81
12759;BME280;20944;47.048;15.390;2023-03-16T11:59:45;98029.59;;;10.44;30.30
12759;BME280;20944;47.048;15.390;2023-03-16T12:02:45;98027.03;;;10.81;29.59
12759;BME280;20944;47.048;15.390;2023-03-16T12:05:39;98023.84;;;11.05;29.93
12759;BME280;20944;47.048;15.390;2023-03-16T12:08:23;97957.44;;;10.68;28.82
12759;BME280;20944;47.048;15.390;2023-03-16T12:10:59;97946.19;;;11.00;29.50
12759;BME280;20944;47.048;15.390;2023-03-16T12:13:39;98010.34;;;11.56;29.40
12759;BME280;20944;47.048;15.390;2023-03-16T12:16:16;98001.97;;;11.42;26.45
12759;BME280;20944;47.048;15.390;2023-03-16T12:18:51;98008.63;;;11.55;27.46
12759;BME280;20944;47.048;15.390;2023-03-16T12:21:24;97891.22;;;10.97;26.57
12759;BME280;20944;47.048;15.390;2023-03-16T12:23:56;97995.75;;;11.46;26.79
12759;BME280;20944;47.048;15.390;2023-03-16T12:26:28;97879.38;;;10.80;28.00
12759;BME280;20944;47.048;15.390;2023-03-16T12:29:01;97994.84;;;11.83;28.17
12759;BME280;20944;47.048;15.390;2023-03-16T12:31:36;97989.78;;;12.08;27.36
12759;BME280;20944;47.048;15.390;2023-03-16T12:34:19;97993.84;;;11.53;27.30
12759;BME280;20944;47.048;15.390;2023-03-16T12:37:09;97994.66;;;11.55;26.94
12759;BME280;20944;47.048;15.390;2023-03-16T12:39:56;97988.75;;;11.47;27.14
12759;BME280;20944;47.048;15.390;2023-03-16T12:42:59;97990.97;;;11.62;26.77
12759;BME280;20944;47.048;15.390;2023-03-16T12:45:36;97980.00;;;11.82;25.85
12759;BME280;20944;47.048;15.390;2023-03-16T12:48:16;97989.50;;;12.17;25.79
12759;BME280;20944;47.048;15.390;2023-03-16T12:50:51;97970.91;;;12.54;26.72
12759;BME280;20944;47.048;15.390;2023-03-16T12:53:37;97984.97;;;12.81;24.59
12759;BME280;20944;47.048;15.390;2023-03-16T12:56:07;97969.56;;;12.97;23.62
12759;BME280;20944;47.048;15.390;2023-03-16T12:58:43;97953.47;;;13.08;25.46
12759;BME280;20944;47.048;15.390;2023-03-16T13:01:13;97959.28;;;13.44;25.40
12759;BME280;20944;47.048;15.390;2023-03-16T13:03:46;97958.44;;;13.68;25.00
12759;BME280;20944;47.048;15.390;2023-03-16T13:06:19;97952.69;;;13.82;23.42
12759;BME280;20944;47.048;15.390;2023-03-16T13:08:52;97950.31;;;13.99;23.58
12759;BME280;20944;47.048;15.390;2023-03-16T13:11:23;97947.22;;;14.12;22.57
12759;BME280;20944;47.048;15.390;2023-03-16T13:14:07;97946.72;;;14.25;23.31
12759;BME280;20944;47.048;15.390;2023-03-16T13:16:37;97929.31;;;14.21;22.29
12759;BME280;20944;47.048;15.390;2023-03-16T13:19:22;97946.47;;;14.31;20.80
12759;BME280;20944;47.048;15.390;2023-03-16T13:22:03;97928.47;;;14.19;21.74
12759;BME280;20944;47.048;15.390;2023-03-16T13:24:37;97908.47;;;14.14;22.39
12759;BME280;20944;47.048;15.390;2023-03-16T13:27:18;97943.69;;;14.36;22.76